Etusivu
METAR-TAF:

METAR-TAF

Lentoasemat :

Nîmes, Ranska

Leveyspiiri: 43-45N, Pituuspiiri: 004-25E, korkeus merenpinnasta: 94 m

Tämänhetkinen sää

Tämä raportti tehtiin 40 minuuttia sitten, kello 15.30 UTC
Tuuli 9 kn pohjoisesta
Lämpötila 19°C
Kosteus 34%
Ilmanpaine 1021 hPa
Näkyvyys 10 km tai enemmän
ei pilviä alle 1500 m:ssä eikä cumulonimbus-pilviä

METAR: LFTW 221530Z AUTO 01009KT CAVOK 19/03 Q1021 NOSIG

Aika: 18:10 (16:10 UTC)

Sääennuste

Tämä raportti tehtiin 2 tuntia ja 10 minuuttia sitten, kello 14.00 UTC
Ennuste voimassa 22. päivästä klo 15 UTC - 23. päivään klo 15 UTC
Tuuli 10 kn pohjoisesta
Näkyvyys 10 km tai enemmän
ei pilviä alle 1500 m:ssä eikä cumulonimbus-pilviä
Ajoittain
22. päivästä klo 20 UTC - 23. päivään klo 15 UTC
Tuuli 15 kn pohjoisesta puuskistuen 25 kn:hen

TAF: LFTW 221400Z 2215/2315 36010KT CAVOK TEMPO 2220/2315 36015G25KT

Säähavainnot ja -ennusteet yli 4000 lentoasemalta (METAR- ja TAF-raportit).

Käytössä olevat sääasemat on merkitty karttaan keltaisilla ja punaisilla pisteillä.

Aseta hiiri pisteen päälle nähdäksesi sääaseman nimen.

Klikkaa sitten nähdäksesi säähavainnot ja -ennusteet.

Kartan vaihtaminen: klikkaa mustalla rastilla varustettuja vihreitä pisteitä, niin voit zoomata sisään; viivalla varustettua vihreää pistettä, niin voit zoomata ulos tai vihreitä nuolia, niin pääset viereisille kartoille.


METAR-TAF: